Newark-Heath (VTA)

 

Airport Diagram
No Airport Diagram Available
Current Weather/Forecast (VFR Conditions)
METAR KVTA 232254Z AUTO 20005KT 10SM BKN070 23/17 A2991 RMK AO2 SLP127 T02280172
TAF

Airport Information

All Charts
General
Chart Name View
TAKEOFF MINIMUMS
ALTERNATE MINIMUMS
TAKEOFF MINIMUMS
ALTERNATE MINIMUMS

Arrivals
Chart Name Download
GAILL THREE (RNAV)
GUNNE FOUR
GUNNE FOUR, CONT.1
GAILL THREE (RNAV)
GUNNE FOUR
GUNNE FOUR, CONT.1

Approaches
Chart Name Download
RNAV (GPS) RWY 09
RNAV (GPS) RWY 27
LOC RWY 09
VOR-A
RNAV (GPS) RWY 09
RNAV (GPS) RWY 27
LOC RWY 09
VOR-A


Airport Statistics
Departures Arrivals Local
All Collected Stats since June 2016: 24 9 2
2020 Stats: 17 4 0
October Stats: 0 0 0

Inbound Traffic (Arrivals) - 0

No inbound traffic.


Outbound Traffic (Departures) - 0

No outbound traffic.


Local Traffic (Pattern) - 0

No local traffic.